Time;durP1;ratioP1;P1;durP2;ratioP2;P2;SDS_P1;SDS_P2;PMS_P1;PMS_P2;Temp;Humidity;BMP_temperature;BMP_pressure;BME280_temperature;BME280_humidity;BME280_pressure;Samples;Min_cycle;Max_cycle;Signal;HPM_P1;HPM_P2
2021/01/06 00:02:05;;;;;;;17.55;9.65;;;;;;;;;;5156864;28;20192;-51
2021/01/06 00:04:33;;;;;;;15.38;10.20;;;;;;;;;;5156774;28;20203;-48
2021/01/06 00:07:33;;;;;;;18.27;10.10;;;;;;;;;;5156706;28;20204;-45
2021/01/06 00:10:00;;;;;;;14.60;8.25;;;;;;;;;;5156894;28;20298;-53
2021/01/06 00:12:27;;;;;;;15.40;9.80;;;;;;;;;;5156139;28;20194;-56
2021/01/06 00:15:00;;;;;;;13.63;8.40;;;;;;;;;;5157421;27;20234;-54
2021/01/06 00:17:26;;;;;;;14.20;8.70;;;;;;;;;;5160914;27;20234;-47
2021/01/06 00:19:54;;;;;;;14.80;8.82;;;;;;;;;;5160605;27;20293;-55
2021/01/06 00:22:36;;;;;;;15.50;9.23;;;;;;;;;;5160327;27;20205;-57
2021/01/06 00:25:04;;;;;;;13.18;9.25;;;;;;;;;;5160315;27;20284;-52
2021/01/06 00:27:31;;;;;;;17.35;9.57;;;;;;;;;;5160767;27;20231;-46
2021/01/06 00:30:11;;;;;;;15.63;9.20;;;;;;;;;;5160298;27;20205;-50
2021/01/06 00:32:38;;;;;;;16.20;10.73;;;;;;;;;;5159788;27;20201;-48
2021/01/06 00:35:07;;;;;;;14.18;9.02;;;;;;;;;;5164029;27;20265;-55
2021/01/06 00:37:51;;;;;;;15.45;10.45;;;;;;;;;;5161817;27;20239;-55
2021/01/06 00:40:19;;;;;;;15.45;8.95;;;;;;;;;;5179370;27;20201;-55
2021/01/06 00:42:46;;;;;;;13.57;9.20;;;;;;;;;;5171511;27;20221;-52
2021/01/06 00:45:20;;;;;;;13.68;8.65;;;;;;;;;;5181467;27;20211;-51
2021/01/06 00:47:47;;;;;;;21.25;9.30;;;;;;;;;;5181105;27;20186;-51
2021/01/06 00:50:15;;;;;;;16.83;9.77;;;;;;;;;;5181447;27;20191;-50
2021/01/06 00:52:53;;;;;;;18.85;10.02;;;;;;;;;;5182132;27;20214;-55
2021/01/06 00:55:20;;;;;;;16.20;9.57;;;;;;;;;;5181796;27;20223;-52
2021/01/06 00:57:47;;;;;;;14.65;9.80;;;;;;;;;;5181167;27;20200;-54
2021/01/06 01:00:29;;;;;;;20.17;11.13;;;;;;;;;;5180872;27;20282;-51
2021/01/06 01:02:56;;;;;;;16.17;9.30;;;;;;;;;;5154099;27;20260;-50
2021/01/06 01:05:25;;;;;;;14.75;9.70;;;;;;;;;;5139220;28;20264;-52
2021/01/06 01:07:52;;;;;;;13.18;8.30;;;;;;;;;;5138763;28;20281;-49
2021/01/06 01:10:28;;;;;;;15.57;10.20;;;;;;;;;;5139156;28;20291;-48
2021/01/06 01:13:15;;;;;;;21.95;9.85;;;;;;;;;;5138583;27;20231;-56
2021/01/06 01:15:43;;;;;;;18.77;9.70;;;;;;;;;;5139060;28;20431;-48
2021/01/06 01:18:13;;;;;;;18.08;10.68;;;;;;;;;;5138552;27;20212;-60
2021/01/06 01:20:45;;;;;;;18.48;9.75;;;;;;;;;;5138969;28;20248;-51
2021/01/06 01:23:12;;;;;;;14.23;9.35;;;;;;;;;;5136420;28;20253;-51
2021/01/06 01:25:39;;;;;;;16.20;9.13;;;;;;;;;;5138597;28;20193;-58
2021/01/06 01:28:14;;;;;;;16.52;10.25;;;;;;;;;;5139288;28;20190;-55
2021/01/06 01:30:41;;;;;;;16.52;9.57;;;;;;;;;;5139673;28;20197;-55
2021/01/06 01:33:08;;;;;;;18.58;10.57;;;;;;;;;;5139373;28;20261;-54
2021/01/06 01:35:53;;;;;;;19.83;11.07;;;;;;;;;;5139432;28;20206;-49
2021/01/06 01:38:21;;;;;;;15.05;10.15;;;;;;;;;;5138672;28;20210;-47
2021/01/06 01:40:48;;;;;;;15.75;9.35;;;;;;;;;;5138222;28;20215;-48
2021/01/06 01:43:17;;;;;;;18.92;10.98;;;;;;;;;;5138734;28;20210;-44
2021/01/06 01:45:58;;;;;;;18.60;9.18;;;;;;;;;;5138108;28;20207;-53
2021/01/06 01:48:27;;;;;;;19.15;8.85;;;;;;;;;;5137859;28;20212;-53
2021/01/06 01:50:58;;;;;;;15.48;9.75;;;;;;;;;;5137959;28;20214;-53
2021/01/06 01:53:28;;;;;;;14.30;9.23;;;;;;;;;;5138425;28;20206;-52
2021/01/06 01:55:56;;;;;;;17.20;9.25;;;;;;;;;;5138041;28;20233;-55
2021/01/06 01:58:42;;;;;;;21.27;10.90;;;;;;;;;;5138168;28;20212;-57
2021/01/06 02:01:09;;;;;;;14.90;8.55;;;;;;;;;;5138325;28;20213;-53
2021/01/06 02:03:41;;;;;;;15.65;8.45;;;;;;;;;;5139277;28;20198;-52
2021/01/06 02:09:14;;;;;;;17.20;10.30;;;;;;;;;;5150891;27;20239;-47
2021/01/06 02:11:42;;;;;;;16.35;9.15;;;;;;;;;;5158496;27;20193;-55
2021/01/06 02:14:11;;;;;;;14.85;10.00;;;;;;;;;;5158050;27;20225;-50
2021/01/06 02:16:41;;;;;;;14.93;8.98;;;;;;;;;;5158671;27;20186;-52
2021/01/06 02:19:11;;;;;;;32.08;17.65;;;;;;;;;;5158555;27;20202;-54
2021/01/06 02:21:39;;;;;;;14.50;9.70;;;;;;;;;;5150649;27;20207;-53
2021/01/06 02:24:06;;;;;;;12.18;8.18;;;;;;;;;;5143378;27;20206;-50
2021/01/06 02:29:37;;;;;;;15.75;10.02;;;;;;;;;;5147237;27;20228;-54
2021/01/06 02:32:05;;;;;;;15.23;8.65;;;;;;;;;;5158661;27;20229;-54
2021/01/06 02:34:32;;;;;;;14.77;9.10;;;;;;;;;;5157749;27;20233;-47
2021/01/06 02:37:00;;;;;;;15.52;9.82;;;;;;;;;;5158040;27;20191;-55
2021/01/06 02:39:37;;;;;;;17.83;10.00;;;;;;;;;;5158059;27;20190;-52
2021/01/06 02:42:06;;;;;;;14.43;9.10;;;;;;;;;;5158374;27;20217;-48
2021/01/06 02:44:33;;;;;;;13.35;8.60;;;;;;;;;;5158145;27;20218;-50
2021/01/06 02:47:14;;;;;;;15.23;8.90;;;;;;;;;;5158816;27;20181;-52
2021/01/06 02:49:41;;;;;;;13.52;8.65;;;;;;;;;;5158738;27;20221;-48
2021/01/06 02:52:14;;;;;;;15.68;9.55;;;;;;;;;;5158803;27;20186;-53
2021/01/06 02:54:44;;;;;;;17.70;11.02;;;;;;;;;;5158326;27;20230;-49
2021/01/06 02:57:11;;;;;;;16.90;10.55;;;;;;;;;;5158077;27;20193;-49
2021/01/06 02:59:39;;;;;;;15.18;10.10;;;;;;;;;;5158020;27;20199;-58
2021/01/06 03:02:33;;;;;;;15.95;9.98;;;;;;;;;;5157293;27;20206;-53
2021/01/06 03:05:03;;;;;;;18.08;11.23;;;;;;;;;;5158065;27;20184;-48
2021/01/06 03:07:32;;;;;;;15.70;9.52;;;;;;;;;;5156398;27;20206;-52
2021/01/06 03:10:00;;;;;;;21.23;10.35;;;;;;;;;;5157393;27;20190;-54
2021/01/06 03:12:29;;;;;;;18.80;10.80;;;;;;;;;;5157706;27;20189;-50
2021/01/06 03:14:56;;;;;;;16.05;9.63;;;;;;;;;;5157282;27;20205;-49
2021/01/06 03:17:29;;;;;;;13.73;8.65;;;;;;;;;;5157325;27;20206;-54
2021/01/06 03:19:59;;;;;;;13.45;8.40;;;;;;;;;;5157255;28;20188;-52
2021/01/06 03:22:26;;;;;;;17.95;10.73;;;;;;;;;;5157217;28;20209;-52
2021/01/06 03:25:20;;;;;;;16.45;9.30;;;;;;;;;;5156593;28;20190;-55
2021/01/06 03:27:50;;;;;;;12.68;9.20;;;;;;;;;;5156975;28;20214;-49
2021/01/06 03:30:21;;;;;;;14.80;9.23;;;;;;;;;;5157891;28;20198;-47
2021/01/06 03:32:59;;;;;;;14.50;8.60;;;;;;;;;;5156702;28;20324;-54
2021/01/06 03:35:30;;;;;;;14.60;8.50;;;;;;;;;;5156849;28;20222;-55
2021/01/06 03:38:00;;;;;;;12.48;8.35;;;;;;;;;;5157153;28;20186;-56
2021/01/06 03:40:28;;;;;;;14.90;9.85;;;;;;;;;;5157138;28;20212;-53
2021/01/06 03:42:57;;;;;;;10.73;7.57;;;;;;;;;;5157585;28;20205;-51
2021/01/06 03:45:40;;;;;;;12.27;8.57;;;;;;;;;;5157084;28;20185;-53
2021/01/06 03:48:12;;;;;;;13.35;8.70;;;;;;;;;;5157081;28;20194;-52
2021/01/06 03:50:41;;;;;;;17.95;9.25;;;;;;;;;;5160890;27;20217;-54
2021/01/06 03:53:21;;;;;;;14.40;9.43;;;;;;;;;;5161053;27;20213;-55
2021/01/06 03:55:50;;;;;;;13.98;9.43;;;;;;;;;;5160518;27;20213;-48
2021/01/06 03:58:38;;;;;;;12.68;8.48;;;;;;;;;;5161389;27;20216;-55
2021/01/06 04:01:11;;;;;;;12.73;8.50;;;;;;;;;;5161306;27;20190;-51
2021/01/06 04:03:44;;;;;;;12.98;8.68;;;;;;;;;;5161057;27;20191;-49
2021/01/06 04:06:15;;;;;;;14.25;8.05;;;;;;;;;;5160675;27;20187;-52
2021/01/06 04:08:45;;;;;;;11.10;7.05;;;;;;;;;;5160787;27;20207;-54
2021/01/06 04:11:15;;;;;;;12.20;8.20;;;;;;;;;;5161261;27;20203;-51
2021/01/06 04:13:49;;;;;;;17.60;10.15;;;;;;;;;;5161308;27;20204;-56
2021/01/06 04:16:15;;;;;;;11.68;9.00;;;;;;;;;;5144616;27;20250;-55
2021/01/06 04:18:43;;;;;;;13.88;8.27;;;;;;;;;;5140554;28;20213;-56
2021/01/06 04:21:10;;;;;;;11.35;7.95;;;;;;;;;;5140490;28;20200;-56
2021/01/06 04:23:37;;;;;;;15.95;9.38;;;;;;;;;;5140124;28;20217;-53
2021/01/06 04:26:04;;;;;;;13.15;8.70;;;;;;;;;;5140033;28;20272;-50
2021/01/06 04:28:43;;;;;;;13.20;7.95;;;;;;;;;;5140327;28;20302;-56
2021/01/06 04:31:13;;;;;;;13.13;8.85;;;;;;;;;;5140076;28;20195;-49
2021/01/06 04:33:42;;;;;;;12.88;8.32;;;;;;;;;;5140526;28;20283;-54
2021/01/06 04:36:11;;;;;;;12.80;7.32;;;;;;;;;;5134108;28;20214;-54
2021/01/06 04:38:40;;;;;;;12.93;8.02;;;;;;;;;;5140240;28;20201;-56
2021/01/06 04:41:21;;;;;;;10.73;7.07;;;;;;;;;;5140850;27;20183;-59
2021/01/06 04:44:09;;;;;;;11.07;7.55;;;;;;;;;;5140694;27;20212;-54
2021/01/06 04:46:47;;;;;;;12.32;7.10;;;;;;;;;;5136990;27;20211;-54
2021/01/06 04:49:20;;;;;;;13.23;8.88;;;;;;;;;;5125334;28;20200;-53
2021/01/06 04:52:04;;;;;;;11.10;7.57;;;;;;;;;;5119347;28;20195;-49
2021/01/06 04:57:39;;;;;;;11.30;7.45;;;;;;;;;;5128658;27;20248;-57
2021/01/06 05:00:14;;;;;;;13.32;7.95;;;;;;;;;;5139474;28;20253;-57
2021/01/06 05:03:06;;;;;;;13.05;8.27;;;;;;;;;;5138865;27;20183;-55
2021/01/06 05:05:46;;;;;;;8.95;6.32;;;;;;;;;;5138772;28;20198;-59
2021/01/06 05:08:16;;;;;;;11.57;7.80;;;;;;;;;;5138977;28;20202;-55
2021/01/06 05:10:45;;;;;;;11.55;6.78;;;;;;;;;;5139098;28;20194;-49
2021/01/06 05:13:20;;;;;;;11.90;7.32;;;;;;;;;;5139652;28;20291;-55
2021/01/06 05:15:52;;;;;;;8.88;6.80;;;;;;;;;;5138734;28;20217;-47
2021/01/06 05:18:18;;;;;;;10.32;5.97;;;;;;;;;;5139209;28;20242;-49
2021/01/06 05:20:46;;;;;;;8.90;4.80;;;;;;;;;;5138682;28;20375;-53
2021/01/06 05:23:21;;;;;;;9.73;6.32;;;;;;;;;;5138774;28;20190;-54
2021/01/06 05:25:51;;;;;;;9.10;6.22;;;;;;;;;;5140784;27;20275;-52
2021/01/06 05:28:20;;;;;;;9.25;5.97;;;;;;;;;;5159406;27;20189;-56
2021/01/06 05:31:12;;;;;;;10.38;5.78;;;;;;;;;;5157261;27;20257;-55
2021/01/06 05:33:45;;;;;;;13.90;6.30;;;;;;;;;;5153315;27;20248;-49
2021/01/06 05:36:15;;;;;;;13.43;8.98;;;;;;;;;;5159233;27;20463;-48
2021/01/06 05:38:42;;;;;;;11.63;7.35;;;;;;;;;;5159061;27;20225;-54
2021/01/06 05:41:09;;;;;;;12.32;6.90;;;;;;;;;;5158948;27;20245;-47
2021/01/06 05:43:43;;;;;;;14.80;8.57;;;;;;;;;;5159432;27;20190;-49
2021/01/06 05:46:14;;;;;;;16.23;10.15;;;;;;;;;;5159122;27;20232;-54
2021/01/06 05:48:56;;;;;;;14.45;7.85;;;;;;;;;;5159310;27;20216;-53
2021/01/06 05:51:26;;;;;;;19.20;11.82;;;;;;;;;;5152435;27;20209;-54
2021/01/06 05:53:58;;;;;;;14.48;8.43;;;;;;;;;;5150624;27;20373;-55
2021/01/06 05:56:46;;;;;;;17.20;9.20;;;;;;;;;;5158940;27;20217;-57
2021/01/06 05:59:18;;;;;;;13.50;8.77;;;;;;;;;;5127203;27;20234;-52
2021/01/06 06:01:48;;;;;;;12.43;7.57;;;;;;;;;;5116816;28;20210;-51
2021/01/06 06:04:39;;;;;;;17.88;8.35;;;;;;;;;;5099444;28;20206;-57
2021/01/06 06:07:26;;;;;;;13.38;8.43;;;;;;;;;;5112523;28;20198;-55
2021/01/06 06:10:08;;;;;;;12.90;8.48;;;;;;;;;;5118892;28;20199;-57
2021/01/06 06:12:40;;;;;;;15.35;9.18;;;;;;;;;;5108718;28;20203;-54
2021/01/06 06:15:16;;;;;;;19.45;10.90;;;;;;;;;;5117572;28;20203;-51
2021/01/06 06:18:08;;;;;;;10.57;8.10;;;;;;;;;;5110720;28;20183;-55
2021/01/06 06:20:52;;;;;;;15.20;8.68;;;;;;;;;;5097134;28;20202;-55
2021/01/06 06:23:30;;;;;;;16.27;8.88;;;;;;;;;;5112645;28;20198;-53
2021/01/06 06:29:05;;;;;;;12.90;7.70;;;;;;;;;;5117483;28;20253;-53
2021/01/06 06:31:33;;;;;;;14.50;8.88;;;;;;;;;;5117826;28;20215;-55
2021/01/06 06:34:02;;;;;;;22.13;10.63;;;;;;;;;;5117810;28;20256;-48
2021/01/06 06:36:30;;;;;;;15.45;10.27;;;;;;;;;;5117111;28;20282;-55
2021/01/06 06:39:20;;;;;;;18.63;10.10;;;;;;;;;;5117058;28;20187;-50
2021/01/06 06:41:48;;;;;;;16.63;10.43;;;;;;;;;;5116188;28;20208;-51
2021/01/06 06:44:23;;;;;;;16.15;10.02;;;;;;;;;;5116312;28;20221;-51
2021/01/06 06:47:19;;;;;;;15.95;9.05;;;;;;;;;;5101100;28;20197;-45
2021/01/06 06:49:55;;;;;;;15.38;9.07;;;;;;;;;;5060912;28;20217;-54
2021/01/06 06:52:25;;;;;;;9.93;7.65;;;;;;;;;;5095929;28;20230;-50
2021/01/06 06:55:25;;;;;;;13.35;8.10;;;;;;;;;;5112660;28;20253;-56
2021/01/06 06:57:57;;;;;;;14.48;9.70;;;;;;;;;;5115945;28;20280;-53
2021/01/06 07:03:31;;;;;;;12.43;7.28;;;;;;;;;;5134525;28;20210;-54
2021/01/06 07:06:00;;;;;;;14.77;7.40;;;;;;;;;;5157099;27;20189;-56
2021/01/06 07:08:31;;;;;;;16.27;8.73;;;;;;;;;;5157648;27;20181;-49
2021/01/06 07:11:00;;;;;;;10.90;8.02;;;;;;;;;;5157787;27;20245;-52
2021/01/06 07:13:28;;;;;;;11.07;8.48;;;;;;;;;;5157533;27;20250;-59
2021/01/06 07:16:00;;;;;;;11.30;8.18;;;;;;;;;;5159604;27;20228;-58
2021/01/06 07:18:34;;;;;;;11.90;7.28;;;;;;;;;;5178687;27;20227;-59
2021/01/06 07:21:05;;;;;;;12.25;8.05;;;;;;;;;;5177851;27;20188;-56
2021/01/06 07:23:35;;;;;;;11.13;8.27;;;;;;;;;;5157126;27;20457;-53
2021/01/06 07:26:15;;;;;;;9.88;7.32;;;;;;;;;;5162945;27;20189;-55
2021/01/06 07:28:44;;;;;;;10.60;7.65;;;;;;;;;;5167306;27;21634;-54
2021/01/06 07:31:12;;;;;;;15.65;7.63;;;;;;;;;;5185165;27;20201;-62
2021/01/06 07:33:42;;;;;;;11.05;8.10;;;;;;;;;;5166830;27;20185;-54
2021/01/06 07:36:49;;;;;;;12.05;7.55;;;;;;;;;;5164425;27;20209;-49
2021/01/06 07:39:25;;;;;;;10.38;7.80;;;;;;;;;;5146364;27;20228;-51
2021/01/06 07:41:53;;;;;;;13.95;8.85;;;;;;;;;;5142606;27;20205;-58
2021/01/06 07:44:28;;;;;;;14.85;8.75;;;;;;;;;;5139682;27;20187;-56
2021/01/06 07:46:57;;;;;;;11.00;7.80;;;;;;;;;;5142934;28;20216;-51
2021/01/06 07:49:33;;;;;;;13.05;8.02;;;;;;;;;;5142535;28;20202;-58
2021/01/06 07:52:05;;;;;;;11.65;7.40;;;;;;;;;;5142897;28;20182;-55
2021/01/06 07:54:36;;;;;;;11.88;8.82;;;;;;;;;;5141718;28;20186;-55
2021/01/06 07:57:11;;;;;;;13.00;8.88;;;;;;;;;;5141407;28;20203;-52
2021/01/06 07:59:45;;;;;;;12.13;8.68;;;;;;;;;;5142226;27;20313;-55
2021/01/06 08:02:13;;;;;;;11.32;7.80;;;;;;;;;;5142291;27;20216;-53
2021/01/06 08:04:46;;;;;;;11.80;8.05;;;;;;;;;;5145701;27;20174;-53
2021/01/06 08:07:19;;;;;;;13.30;9.27;;;;;;;;;;5148732;27;20214;-53
2021/01/06 08:09:55;;;;;;;11.95;8.82;;;;;;;;;;5148503;27;20182;-53
2021/01/06 08:12:24;;;;;;;11.88;8.45;;;;;;;;;;5142328;28;20262;-52
2021/01/06 08:14:52;;;;;;;13.95;8.65;;;;;;;;;;5142224;28;20311;-51
2021/01/06 08:20:25;;;;;;;16.08;9.75;;;;;;;;;;5157773;27;20296;-57
2021/01/06 08:22:57;;;;;;;11.95;8.88;;;;;;;;;;5163657;27;20280;-50
2021/01/06 08:25:53;;;;;;;16.38;9.25;;;;;;;;;;5163447;27;20175;-57
2021/01/06 08:28:24;;;;;;;12.63;7.53;;;;;;;;;;5162932;27;20201;-54
2021/01/06 08:30:52;;;;;;;12.93;9.13;;;;;;;;;;5162530;27;20190;-53
2021/01/06 08:33:48;;;;;;;14.55;7.60;;;;;;;;;;5162460;27;20293;-55
2021/01/06 08:36:21;;;;;;;9.13;6.85;;;;;;;;;;5160319;27;20217;-58
2021/01/06 08:38:48;;;;;;;8.32;7.00;;;;;;;;;;5159549;27;20206;-48
2021/01/06 08:41:18;;;;;;;12.55;7.68;;;;;;;;;;5159810;27;20202;-51
2021/01/06 08:43:46;;;;;;;9.43;7.30;;;;;;;;;;5159473;27;20185;-55
2021/01/06 08:46:24;;;;;;;11.18;7.97;;;;;;;;;;5159197;27;20197;-52
2021/01/06 08:48:53;;;;;;;9.77;6.97;;;;;;;;;;5159794;27;20190;-60
2021/01/06 08:51:31;;;;;;;10.18;8.13;;;;;;;;;;5158880;27;20206;-48
2021/01/06 08:54:32;;;;;;;10.07;7.00;;;;;;;;;;5158795;27;20190;-52
2021/01/06 08:57:03;;;;;;;12.10;8.52;;;;;;;;;;5158510;27;20215;-57
2021/01/06 08:59:34;;;;;;;12.50;8.35;;;;;;;;;;5158645;27;20227;-54
2021/01/06 09:02:26;;;;;;;11.15;8.15;;;;;;;;;;5155122;27;20199;-52
2021/01/06 09:04:54;;;;;;;11.25;7.70;;;;;;;;;;5136214;27;20223;-57
2021/01/06 09:07:23;;;;;;;9.63;7.10;;;;;;;;;;5138332;28;20396;-58
2021/01/06 09:10:17;;;;;;;9.30;7.20;;;;;;;;;;5138041;28;20191;-53
2021/01/06 09:12:54;;;;;;;12.25;7.90;;;;;;;;;;5125536;28;20199;-54
2021/01/06 09:15:46;;;;;;;13.13;9.65;;;;;;;;;;5117021;28;20230;-58
2021/01/06 09:18:16;;;;;;;14.45;9.48;;;;;;;;;;5117708;28;20247;-55
2021/01/06 09:21:08;;;;;;;12.25;8.50;;;;;;;;;;5117799;28;20239;-54
2021/01/06 09:23:37;;;;;;;13.23;8.45;;;;;;;;;;5110378;28;20218;-53
2021/01/06 09:26:14;;;;;;;11.02;8.98;;;;;;;;;;5122505;28;20226;-58
2021/01/06 09:28:44;;;;;;;11.88;8.20;;;;;;;;;;5133683;28;20207;-52
2021/01/06 09:31:12;;;;;;;11.80;8.93;;;;;;;;;;5117504;28;20204;-52
2021/01/06 09:33:50;;;;;;;9.90;8.00;;;;;;;;;;5117438;28;20251;-57
2021/01/06 09:36:17;;;;;;;12.98;9.55;;;;;;;;;;5130422;28;20211;-58
2021/01/06 09:38:46;;;;;;;12.80;9.85;;;;;;;;;;5137861;28;20241;-46
2021/01/06 09:41:32;;;;;;;14.50;10.18;;;;;;;;;;5137703;28;20191;-57
2021/01/06 09:44:00;;;;;;;14.68;9.40;;;;;;;;;;5125582;28;20218;-53
2021/01/06 09:46:41;;;;;;;14.40;10.30;;;;;;;;;;5116671;28;20230;-52
2021/01/06 09:49:12;;;;;;;13.75;10.30;;;;;;;;;;5117310;28;20191;-51
2021/01/06 09:51:40;;;;;;;13.75;9.45;;;;;;;;;;5126001;28;20183;-52
2021/01/06 09:57:15;;;;;;;15.75;11.20;;;;;;;;;;5116993;28;20202;-58
2021/01/06 09:59:42;;;;;;;16.40;10.15;;;;;;;;;;5116633;28;20208;-50
2021/01/06 10:02:21;;;;;;;12.73;9.02;;;;;;;;;;5116377;28;20227;-51
2021/01/06 10:04:50;;;;;;;12.50;8.95;;;;;;;;;;5116448;28;20219;-53
2021/01/06 10:07:27;;;;;;;12.23;9.57;;;;;;;;;;5116266;28;20208;-50
2021/01/06 10:09:59;;;;;;;16.90;11.90;;;;;;;;;;5116829;28;20207;-56
2021/01/06 10:12:38;;;;;;;17.45;10.80;;;;;;;;;;5119819;28;20191;-61
2021/01/06 10:15:24;;;;;;;19.65;11.27;;;;;;;;;;5137831;28;20206;-52
2021/01/06 10:17:56;;;;;;;16.20;10.70;;;;;;;;;;5137049;28;20242;-53
2021/01/06 10:20:27;;;;;;;14.25;10.38;;;;;;;;;;5136499;28;20203;-57
2021/01/06 10:23:25;;;;;;;15.00;11.55;;;;;;;;;;5117237;28;20199;-58
2021/01/06 10:25:55;;;;;;;13.50;10.13;;;;;;;;;;5110376;28;20313;-58
2021/01/06 10:28:32;;;;;;;20.73;11.60;;;;;;;;;;5118167;28;20271;-51
2021/01/06 10:31:05;;;;;;;15.20;10.85;;;;;;;;;;5116074;28;20193;-57
2021/01/06 10:33:35;;;;;;;12.65;9.82;;;;;;;;;;5116240;28;20267;-57
2021/01/06 10:36:39;;;;;;;14.48;10.30;;;;;;;;;;5118425;28;20227;-51
2021/01/06 10:39:08;;;;;;;15.68;10.80;;;;;;;;;;5127968;28;20225;-55
2021/01/06 10:41:38;;;;;;;19.95;13.00;;;;;;;;;;5115754;28;20233;-50
2021/01/06 10:44:30;;;;;;;18.70;12.02;;;;;;;;;;5118164;28;20196;-53
2021/01/06 10:47:17;;;;;;;19.42;14.77;;;;;;;;;;5115636;28;20218;-48
2021/01/06 10:53:09;;;;;;;23.10;13.70;;;;;;;;;;5157015;27;20185;-57
2021/01/06 10:55:42;;;;;;;23.13;14.45;;;;;;;;;;5156624;27;20230;-48
2021/01/06 10:58:25;;;;;;;18.23;12.40;;;;;;;;;;5156074;27;20250;-56
2021/01/06 11:01:22;;;;;;;22.15;14.15;;;;;;;;;;5157252;27;20250;-58
2021/01/06 11:04:08;;;;;;;22.55;14.10;;;;;;;;;;5155257;27;20210;-53
2021/01/06 11:06:39;;;;;;;21.13;13.38;;;;;;;;;;5153052;27;20194;-55
2021/01/06 11:09:24;;;;;;;21.75;13.73;;;;;;;;;;5135069;28;20198;-57
2021/01/06 11:12:15;;;;;;;22.58;13.40;;;;;;;;;;5121034;28;20195;-54
2021/01/06 11:15:03;;;;;;;20.73;13.32;;;;;;;;;;5115023;28;20222;-56
2021/01/06 11:17:34;;;;;;;18.80;12.95;;;;;;;;;;5110610;28;20213;-56
2021/01/06 11:20:07;;;;;;;24.58;13.55;;;;;;;;;;5121413;28;20214;-43
2021/01/06 11:22:51;;;;;;;19.33;12.23;;;;;;;;;;5135385;28;20231;-54
2021/01/06 11:25:48;;;;;;;21.05;12.48;;;;;;;;;;5120537;28;20199;-53
2021/01/06 11:31:26;;;;;;;20.92;12.60;;;;;;;;;;5114354;28;20202;-58
2021/01/06 11:37:25;;;;;;;24.00;11.15;;;;;;;;;;5136692;28;20177;-53
2021/01/06 11:39:52;;;;;;;16.45;10.05;;;;;;;;;;5126527;28;20211;-56
2021/01/06 11:42:48;;;;;;;20.27;12.27;;;;;;;;;;5134561;28;20195;-51
2021/01/06 11:45:16;;;;;;;19.33;11.68;;;;;;;;;;5085887;28;20251;-54
2021/01/06 11:48:10;;;;;;;17.25;10.40;;;;;;;;;;5134397;28;20216;-51
2021/01/06 11:50:42;;;;;;;14.73;9.65;;;;;;;;;;5119567;28;20239;-53
2021/01/06 11:53:16;;;;;;;14.63;9.38;;;;;;;;;;5114011;28;20204;-53
2021/01/06 11:55:50;;;;;;;15.13;10.35;;;;;;;;;;5114464;28;20231;-55
2021/01/06 11:58:35;;;;;;;13.68;10.18;;;;;;;;;;5114840;28;20190;-56
2021/01/06 12:01:33;;;;;;;14.90;10.60;;;;;;;;;;5122702;28;20216;-53
2021/01/06 12:04:04;;;;;;;15.68;9.70;;;;;;;;;;5135288;28;20199;-48
2021/01/06 12:06:46;;;;;;;14.02;9.98;;;;;;;;;;5135641;28;20207;-58
2021/01/06 12:09:45;;;;;;;22.42;11.88;;;;;;;;;;5134814;28;20194;-49
2021/01/06 12:12:33;;;;;;;16.70;10.77;;;;;;;;;;5138115;28;20203;-54
2021/01/06 12:18:32;;;;;;;15.93;11.00;;;;;;;;;;5136594;28;20205;-53
2021/01/06 12:21:37;;;;;;;19.50;12.05;;;;;;;;;;5131007;28;20194;-59
2021/01/06 12:24:47;;;;;;;19.52;13.40;;;;;;;;;;5121369;28;20190;-52
2021/01/06 12:27:48;;;;;;;19.70;13.05;;;;;;;;;;5113473;28;20203;-53
2021/01/06 12:30:39;;;;;;;20.77;12.50;;;;;;;;;;5117789;28;20203;-55
2021/01/06 12:33:35;;;;;;;18.35;12.95;;;;;;;;;;5117908;28;20289;-54
2021/01/06 12:36:09;;;;;;;19.33;12.98;;;;;;;;;;5117939;28;20252;-50
2021/01/06 12:38:56;;;;;;;19.27;12.63;;;;;;;;;;5117440;28;20454;-58
2021/01/06 12:41:24;;;;;;;18.58;12.35;;;;;;;;;;5117510;28;20206;-51
2021/01/06 12:44:07;;;;;;;14.57;10.48;;;;;;;;;;5117134;28;20190;-51
2021/01/06 12:46:37;;;;;;;16.95;11.30;;;;;;;;;;5118000;28;20192;-58
2021/01/06 12:49:22;;;;;;;14.63;10.80;;;;;;;;;;5118940;28;20188;-53
2021/01/06 12:52:15;;;;;;;19.83;13.20;;;;;;;;;;5132187;28;20213;-46
2021/01/06 12:54:44;;;;;;;20.38;12.10;;;;;;;;;;5139565;28;20258;-49
2021/01/06 12:57:24;;;;;;;22.80;12.85;;;;;;;;;;5137458;28;20203;-52
2021/01/06 12:59:54;;;;;;;15.80;11.75;;;;;;;;;;5124099;28;20234;-49
2021/01/06 13:02:25;;;;;;;21.05;13.23;;;;;;;;;;5118926;28;20200;-50
2021/01/06 13:04:52;;;;;;;24.40;13.75;;;;;;;;;;5127554;28;20235;-50
2021/01/06 13:07:26;;;;;;;19.08;12.45;;;;;;;;;;5138588;28;20202;-54
2021/01/06 13:10:01;;;;;;;16.73;12.82;;;;;;;;;;5137458;28;20199;-51
2021/01/06 13:12:35;;;;;;;16.52;12.23;;;;;;;;;;5137314;28;20202;-48
2021/01/06 13:15:06;;;;;;;16.67;12.63;;;;;;;;;;5136530;28;20206;-53
2021/01/06 13:17:35;;;;;;;19.88;12.05;;;;;;;;;;5137256;28;20199;-48
2021/01/06 13:20:16;;;;;;;16.35;12.38;;;;;;;;;;5136557;28;20210;-53
2021/01/06 13:22:50;;;;;;;19.55;11.88;;;;;;;;;;5136346;28;20243;-49
2021/01/06 13:25:19;;;;;;;18.75;12.57;;;;;;;;;;5137148;28;20211;-57
2021/01/06 13:28:17;;;;;;;20.25;13.63;;;;;;;;;;5120161;28;20194;-51
2021/01/06 13:30:47;;;;;;;18.45;11.95;;;;;;;;;;5130551;28;20195;-48
2021/01/06 13:33:19;;;;;;;18.55;12.07;;;;;;;;;;5153252;27;20183;-54
2021/01/06 13:36:21;;;;;;;19.15;13.88;;;;;;;;;;5157540;27;20209;-51
2021/01/06 13:38:59;;;;;;;19.50;13.85;;;;;;;;;;5069232;28;20229;-52
2021/01/06 13:41:59;;;;;;;24.02;15.38;;;;;;;;;;5127342;28;20221;-54
2021/01/06 13:44:44;;;;;;;27.50;17.42;;;;;;;;;;5137130;28;20212;-55
2021/01/06 13:47:31;;;;;;;24.33;16.70;;;;;;;;;;5148583;27;20193;-53
2021/01/06 13:50:02;;;;;;;23.35;15.10;;;;;;;;;;5121698;27;20188;-56
2021/01/06 13:52:33;;;;;;;29.35;18.10;;;;;;;;;;5159368;27;20275;-53
2021/01/06 13:55:32;;;;;;;27.55;17.50;;;;;;;;;;5158306;27;20197;-57
2021/01/06 13:58:03;;;;;;;28.23;18.10;;;;;;;;;;5133755;27;20223;-52
2021/01/06 14:00:36;;;;;;;29.85;18.00;;;;;;;;;;5131586;28;20209;-56
2021/01/06 14:03:26;;;;;;;30.23;16.23;;;;;;;;;;5136180;27;20187;-50
2021/01/06 14:06:02;;;;;;;23.83;16.27;;;;;;;;;;5133313;28;20207;-51
2021/01/06 14:08:31;;;;;;;22.15;15.25;;;;;;;;;;5115555;28;20207;-59
2021/01/06 14:11:22;;;;;;;22.23;14.93;;;;;;;;;;5119831;28;20214;-56
2021/01/06 14:14:11;;;;;;;23.95;16.02;;;;;;;;;;5125680;28;20197;-47
2021/01/06 14:16:48;;;;;;;28.98;15.30;;;;;;;;;;5124589;28;20252;-55
2021/01/06 14:19:45;;;;;;;24.83;16.80;;;;;;;;;;5128614;28;20194;-48
2021/01/06 14:22:20;;;;;;;24.60;17.63;;;;;;;;;;5124505;28;20215;-55
2021/01/06 14:24:51;;;;;;;24.75;16.10;;;;;;;;;;5115932;28;20202;-56
2021/01/06 14:27:41;;;;;;;26.73;17.65;;;;;;;;;;5115941;28;20199;-54
2021/01/06 14:33:04;;;;;;;26.27;18.27;;;;;;;;;;5125772;27;20190;-51
2021/01/06 14:35:43;;;;;;;29.80;16.80;;;;;;;;;;5147944;27;20384;-51
2021/01/06 14:38:48;;;;;;;24.80;17.33;;;;;;;;;;5121241;28;20210;-50
2021/01/06 14:41:41;;;;;;;24.77;16.52;;;;;;;;;;5114764;28;20218;-58
2021/01/06 14:47:23;;;;;;;27.63;17.20;;;;;;;;;;5136552;27;20197;-49
2021/01/06 14:49:55;;;;;;;26.92;16.75;;;;;;;;;;5121953;28;20191;-58
2021/01/06 14:52:49;;;;;;;25.52;16.05;;;;;;;;;;5125797;28;20226;-58
2021/01/06 14:55:20;;;;;;;25.13;17.80;;;;;;;;;;5133312;27;20226;-55
2021/01/06 14:57:50;;;;;;;29.15;18.83;;;;;;;;;;5151256;27;20278;-52
2021/01/06 15:00:44;;;;;;;29.70;18.98;;;;;;;;;;5157559;27;20210;-48
2021/01/06 15:03:34;;;;;;;29.98;18.75;;;;;;;;;;5140042;27;20238;-50
2021/01/06 15:06:10;;;;;;;32.15;22.08;;;;;;;;;;5109264;28;20214;-60
2021/01/06 15:08:58;;;;;;;40.65;22.85;;;;;;;;;;5127500;28;20183;-58
2021/01/06 15:11:37;;;;;;;38.85;23.90;;;;;;;;;;5115726;28;20225;-51
2021/01/06 15:14:09;;;;;;;32.20;21.42;;;;;;;;;;5132934;28;20198;-54
2021/01/06 15:16:37;;;;;;;34.42;22.30;;;;;;;;;;5116437;28;20257;-57
2021/01/06 15:19:05;;;;;;;36.70;23.63;;;;;;;;;;5115793;28;20211;-56
2021/01/06 15:21:50;;;;;;;30.98;20.75;;;;;;;;;;5116122;28;20191;-58
2021/01/06 15:24:19;;;;;;;38.38;21.35;;;;;;;;;;5117954;28;20203;-58
2021/01/06 15:26:50;;;;;;;38.97;23.23;;;;;;;;;;5135504;28;20211;-55
2021/01/06 15:29:23;;;;;;;35.88;22.10;;;;;;;;;;5136559;28;20201;-58
2021/01/06 15:32:01;;;;;;;39.50;22.85;;;;;;;;;;5107718;28;20265;-49
2021/01/06 15:34:29;;;;;;;33.00;21.55;;;;;;;;;;5121954;28;20195;-52
2021/01/06 15:36:58;;;;;;;34.20;22.02;;;;;;;;;;5135830;28;20305;-54
2021/01/06 15:39:26;;;;;;;32.83;21.00;;;;;;;;;;5136484;28;20222;-48
2021/01/06 15:42:07;;;;;;;33.15;21.95;;;;;;;;;;5137095;28;20193;-55
2021/01/06 15:44:36;;;;;;;37.58;23.55;;;;;;;;;;5136979;28;20190;-55
2021/01/06 15:47:04;;;;;;;36.45;21.40;;;;;;;;;;5141297;28;20199;-57
2021/01/06 15:49:34;;;;;;;29.67;21.33;;;;;;;;;;5141005;28;20170;-58
2021/01/06 15:52:09;;;;;;;30.27;20.83;;;;;;;;;;5127520;28;20195;-53
2021/01/06 15:54:58;;;;;;;33.88;20.90;;;;;;;;;;5137270;28;20190;-54